Weather at Bakel Airport

Public forecast

Using degrees Celsius for public forecast. Weather courtesy of forecast.io.

Closest aviation weather report (METAR) to Bakel Airport

Report is more than 2 hours old.

Closest report is Ouro Sogui Airport, 66.8 nm (123.7 km) NW.

2024/05/26 12:00 (retrieved 3 hours ago)

GOSM 261200Z 18004KT CAVOK 42/14 Q1009

Closest aviation forecast (TAF) to Bakel Airport

Closest forecast is Saint Louis Airport, 242.1 nm (448.3 km) WNW.

2024/05/26 12:00 (retrieved 3 hours ago)

TAF GOGS 261100Z 2612/2712 26006KT 9999 SCT013 TAF GOSS 261100Z 2612/2712 02010KT CAVOK